Time;durP1;ratioP1;P1;durP2;ratioP2;P2;SDS_P1;SDS_P2;PMS_P1;PMS_P2;Temp;Humidity;BMP_temperature;BMP_pressure;BME280_temperature;BME280_humidity;BME280_pressure;Samples;Min_cycle;Max_cycle;Signal;HPM_P1;HPM_P2
2022/11/09 07:00:48;;;;;;;3.93;2.53;;;7.30;99.90;;;;;;5079655;28;20616;-81
2022/11/09 07:03:15;;;;;;;3.07;2.40;;;7.40;99.90;;;;;;5074881;28;20205;-82
2022/11/09 07:47:57;;;;;;;23.27;13.13;;;8.10;99.90;;;;;;5149774;27;20337;-81
2022/11/09 07:50:22;;;;;;;13.23;6.70;;;8.30;99.90;;;;;;5143865;28;20187;-81
2022/11/09 07:52:48;;;;;;;21.27;12.37;;;9.00;99.90;;;;;;5142977;28;20177;-79
2022/11/09 07:55:14;;;;;;;5.87;3.77;;;9.00;99.90;;;;;;5140648;28;20173;-79
2022/11/09 07:57:39;;;;;;;13.20;8.20;;;9.50;99.90;;;;;;5139985;28;20565;-80
2022/11/09 08:00:06;;;;;;;15.87;9.47;;;9.90;99.90;;;;;;5140900;27;20204;-81
2022/11/09 08:02:31;;;;;;;6.27;3.97;;;10.80;99.90;;;;;;5136518;28;20611;-80
2022/11/09 08:04:57;;;;;;;3.97;2.20;;;10.80;99.90;;;;;;5138251;28;20234;-80
2022/11/09 08:07:22;;;;;;;4.67;2.00;;;10.70;99.90;;;;;;5137642;27;20195;-80
2022/11/09 08:09:48;;;;;;;1.60;1.37;;;9.50;99.90;;;;;;5137375;28;20175;-80
2022/11/09 08:12:14;;;;;;;1.53;1.43;;;9.50;99.90;;;;;;5140356;27;20630;-80
2022/11/09 08:14:40;;;;;;;1.73;1.20;;;9.40;99.90;;;;;;5136225;28;20191;-81
2022/11/09 08:17:05;;;;;;;2.50;1.13;;;10.10;99.90;;;;;;5136689;27;20171;-80
2022/11/09 08:19:31;;;;;;;1.73;1.10;;;10.50;99.90;;;;;;5135722;28;20175;-80
2022/11/09 08:21:56;;;;;;;1.83;1.40;;;10.50;99.90;;;;;;5136997;27;20186;-81
2022/11/09 08:24:22;;;;;;;2.00;1.20;;;11.40;99.90;;;;;;5136981;27;20191;-81
2022/11/09 08:26:48;;;;;;;3.03;1.53;;;11.80;99.90;;;;;;5136555;27;20521;-80
2022/11/09 08:29:14;;;;;;;2.60;1.30;;;12.20;99.90;;;;;;5136089;27;20201;-81
2022/11/09 08:31:40;;;;;;;3.20;1.70;;;12.60;99.90;;;;;;5135571;27;20588;-81
2022/11/09 08:34:10;;;;;;;4.03;1.50;;;12.60;99.90;;;;;;5135740;27;20655;-80
2022/11/09 08:36:36;;;;;;;4.67;1.30;;;12.90;99.90;;;;;;5136310;27;20184;-80
2022/11/09 08:39:02;;;;;;;2.90;1.80;;;12.50;99.90;;;;;;5135350;27;20222;-80
2022/11/09 08:41:28;;;;;;;2.50;1.70;;;12.00;99.90;;;;;;5134830;28;20174;-80
2022/11/09 08:43:54;;;;;;;1.70;1.20;;;11.80;99.90;;;;;;5134216;28;20683;-81
2022/11/09 08:46:19;;;;;;;2.10;1.30;;;11.60;99.90;;;;;;5133872;28;20239;-80
2022/11/09 08:48:46;;;;;;;2.93;1.43;;;11.60;99.90;;;;;;5135147;27;20167;-80
2022/11/09 08:51:11;;;;;;;2.60;1.50;;;11.50;99.90;;;;;;5135458;27;20169;-79
2022/11/09 08:53:37;;;;;;;1.60;1.33;;;11.50;99.90;;;;;;5135841;27;20219;-79
2022/11/09 08:56:06;;;;;;;2.23;1.40;;;11.50;99.90;;;;;;5135564;27;20175;-80
2022/11/09 08:58:32;;;;;;;1.60;1.40;;;11.50;99.90;;;;;;5124970;28;20239;-79
2022/11/09 09:00:57;;;;;;;1.80;1.20;;;11.50;99.90;;;;;;5121250;28;20202;-80
2022/11/09 09:03:23;;;;;;;1.63;1.43;;;11.50;99.90;;;;;;5120459;28;20248;-80
2022/11/09 09:05:49;;;;;;;2.03;1.60;;;11.50;99.90;;;;;;5121200;28;20206;-80
2022/11/09 09:08:15;;;;;;;2.33;1.80;;;11.60;99.90;;;;;;5119807;28;20176;-80
2022/11/09 09:10:41;;;;;;;6.40;1.90;;;11.80;99.90;;;;;;5121412;28;20173;-80
2022/11/09 09:13:07;;;;;;;7.17;1.60;;;12.20;99.90;;;;;;5121217;28;20229;-81
2022/11/09 09:15:33;;;;;;;2.13;1.40;;;12.90;99.90;;;;;;5118021;28;20171;-80
2022/11/09 09:18:00;;;;;;;2.27;1.40;;;13.60;99.90;;;;;;5119047;28;20165;-80
2022/11/09 09:20:26;;;;;;;1.97;1.20;;;14.10;99.90;;;;;;5119966;28;20527;-79
2022/11/09 09:22:52;;;;;;;1.80;1.50;;;14.40;99.90;;;;;;5117790;28;20176;-79
2022/11/09 09:25:17;;;;;;;1.60;1.30;;;14.70;99.90;;;;;;5119254;28;20169;-79
2022/11/09 09:27:43;;;;;;;2.33;1.70;;;14.70;99.90;;;;;;5119347;28;20204;-81
2022/11/09 09:30:10;;;;;;;3.70;1.80;;;14.50;99.90;;;;;;5118992;28;20176;-80
2022/11/09 09:32:35;;;;;;;2.13;1.30;;;14.40;99.90;;;;;;5119207;28;20175;-80
2022/11/09 09:35:01;;;;;;;2.57;1.93;;;14.40;99.90;;;;;;5117505;28;20194;-80
2022/11/09 09:37:27;;;;;;;4.67;1.70;;;14.30;99.90;;;;;;5120581;28;20216;-80
2022/11/09 09:39:53;;;;;;;3.63;2.30;;;14.20;99.90;;;;;;5119259;28;20641;-81
2022/11/09 09:42:33;;;;;;;8.83;3.47;;;14.20;99.90;;;;;;5121012;27;20169;-81
2022/11/09 09:45:21;;;;;;;2.63;1.70;;;14.10;99.90;;;;;;5120546;28;20188;-80
2022/11/09 09:48:16;;;;;;;5.67;4.07;;;14.00;99.90;;;;;;5120360;28;20198;-80
2022/11/09 09:50:51;;;;;;;1.80;1.40;;;14.00;99.90;;;;;;5112053;28;20585;-80
2022/11/09 09:53:28;;;;;;;1.50;0.90;;;14.20;99.90;;;;;;5121419;28;20200;-80
2022/11/09 09:56:19;;;;;;;1.20;0.97;;;14.20;99.90;;;;;;5119582;28;20165;-80
2022/11/09 09:58:52;;;;;;;1.30;1.17;;;14.30;99.90;;;;;;5114512;28;20189;-81
2022/11/09 10:01:19;;;;;;;1.17;1.03;;;14.50;99.90;;;;;;5120808;27;20154;-80
2022/11/09 10:03:47;;;;;;;2.63;1.30;;;14.70;99.90;;;;;;5128808;28;20202;-80
2022/11/09 10:06:29;;;;;;;3.60;0.90;;;14.80;99.90;;;;;;5124791;28;20230;-80
2022/11/09 10:09:35;;;;;;;2.03;1.10;;;14.90;99.90;;;;;;5119656;27;20169;-80
2022/11/09 10:12:17;;;;;;;2.20;1.10;;;15.10;99.90;;;;;;5119949;28;20156;-80
2022/11/09 10:14:48;;;;;;;1.37;1.00;;;15.50;99.90;;;;;;5119049;28;20198;-79
2022/11/09 10:17:20;;;;;;;1.17;1.00;;;15.50;99.90;;;;;;5120026;27;20199;-80
2022/11/09 10:19:50;;;;;;;1.50;1.23;;;15.60;99.90;;;;;;5120315;28;20503;-80
2022/11/09 10:22:40;;;;;;;1.63;0.97;;;15.50;99.90;;;;;;5120045;28;20156;-80
2022/11/09 10:25:13;;;;;;;3.00;1.60;;;15.50;99.90;;;;;;5119216;28;20191;-80
2022/11/09 10:27:53;;;;;;;2.80;1.33;;;15.50;99.90;;;;;;5119840;28;20192;-80
2022/11/09 10:30:21;;;;;;;1.90;1.13;;;15.50;99.90;;;;;;5120858;28;20547;-81
2022/11/09 10:32:50;;;;;;;1.60;1.50;;;15.60;99.90;;;;;;5119185;28;20617;-81
2022/11/09 10:35:43;;;;;;;2.37;1.23;;;15.60;99.90;;;;;;5119356;28;20671;-81
2022/11/09 10:38:33;;;;;;;1.80;1.17;;;15.60;99.90;;;;;;5122822;28;20626;-79
2022/11/09 10:41:33;;;;;;;2.20;1.30;;;15.40;99.90;;;;;;5120084;28;20180;-81
2022/11/09 10:43:59;;;;;;;4.13;1.13;;;15.00;99.90;;;;;;5120776;28;20235;-81
2022/11/09 10:46:25;;;;;;;2.63;1.10;;;14.70;99.90;;;;;;5118682;28;20213;-81
2022/11/09 10:48:53;;;;;;;2.13;1.30;;;14.60;99.90;;;;;;5119952;28;20175;-81
2022/11/09 10:51:32;;;;;;;3.77;1.10;;;14.50;99.90;;;;;;5119090;28;20185;-81
2022/11/09 10:54:18;;;;;;;2.43;1.40;;;14.60;99.90;;;;;;5119440;28;20196;-80
2022/11/09 10:56:48;;;;;;;6.23;2.60;;;14.70;99.90;;;;;;5119858;28;20158;-81
2022/11/09 10:59:38;;;;;;;2.93;1.40;;;14.70;99.90;;;;;;5119299;28;20169;-81
2022/11/09 11:02:23;;;;;;;3.43;1.70;;;14.60;99.90;;;;;;5118376;28;20179;-80
2022/11/09 11:04:49;;;;;;;2.37;1.20;;;14.50;99.90;;;;;;5117204;28;20198;-80
2022/11/09 11:07:19;;;;;;;1.83;1.20;;;14.60;99.90;;;;;;5118072;28;20200;-80
2022/11/09 11:09:44;;;;;;;6.97;4.13;;;14.80;99.90;;;;;;5118972;28;20164;-81
2022/11/09 11:12:14;;;;;;;14.90;7.57;;;15.00;99.90;;;;;;5119444;28;20169;-81
2022/11/09 11:14:44;;;;;;;3.23;1.20;;;15.50;99.90;;;;;;5118803;28;20206;-82
2022/11/09 11:17:35;;;;;;;2.33;1.50;;;16.10;99.90;;;;;;5119638;28;20169;-80
2022/11/09 11:20:27;;;;;;;1.50;1.03;;;16.60;99.90;;;;;;5117967;28;20178;-81
2022/11/09 11:23:08;;;;;;;1.10;0.80;;;16.80;99.90;;;;;;5118066;28;20182;-82
2022/11/09 11:25:53;;;;;;;1.57;1.10;;;16.80;99.90;;;;;;5119002;28;20182;-80
2022/11/09 11:28:22;;;;;;;2.33;1.10;;;16.50;99.90;;;;;;5117404;28;20171;-81
2022/11/09 11:30:48;;;;;;;1.43;1.30;;;16.50;99.90;;;;;;5119044;28;20168;-81
2022/11/09 11:33:17;;;;;;;2.30;1.03;;;16.40;99.90;;;;;;5117877;28;20187;-81
2022/11/09 11:35:52;;;;;;;5.07;2.10;;;16.30;99.90;;;;;;5117895;28;20167;-80
2022/11/09 11:38:49;;;;;;;0.97;0.90;;;16.20;99.90;;;;;;5117570;28;20155;-80
2022/11/09 11:41:43;;;;;;;1.80;1.50;;;16.10;99.90;;;;;;5116039;28;20530;-82
2022/11/09 11:44:40;;;;;;;3.23;1.90;;;16.00;99.90;;;;;;5117489;28;20183;-82
2022/11/09 11:47:32;;;;;;;2.03;1.60;;;15.90;99.90;;;;;;5119308;28;20203;-81
2022/11/09 11:49:58;;;;;;;1.20;1.10;;;15.80;99.90;;;;;;5102970;28;20176;-80
2022/11/09 11:52:29;;;;;;;2.23;1.20;;;15.70;99.90;;;;;;5119505;28;20175;-80
2022/11/09 11:55:39;;;;;;;3.53;2.03;;;15.50;99.90;;;;;;5118945;28;20187;-80
2022/11/09 11:58:33;;;;;;;2.53;1.40;;;15.50;99.90;;;;;;5119785;28;20186;-81
2022/11/09 12:01:17;;;;;;;1.20;1.10;;;15.50;99.90;;;;;;5118119;28;20556;-79
2022/11/09 12:04:00;;;;;;;1.57;1.10;;;15.50;99.90;;;;;;5118402;28;20198;-80
2022/11/09 12:06:40;;;;;;;2.37;1.50;;;15.50;99.90;;;;;;5119524;28;20189;-83
2022/11/09 12:09:46;;;;;;;2.37;1.10;;;15.50;99.90;;;;;;5119542;28;20152;-80
2022/11/09 12:12:30;;;;;;;4.60;1.37;;;15.40;99.90;;;;;;5120504;28;20169;-81
2022/11/09 12:15:22;;;;;;;1.37;0.97;;;15.30;99.90;;;;;;5119576;28;20221;-81
2022/11/09 12:18:15;;;;;;;2.70;1.10;;;15.30;99.90;;;;;;5118794;28;20639;-81
2022/11/09 12:20:57;;;;;;;1.93;1.13;;;15.20;99.90;;;;;;5119548;28;20154;-81
2022/11/09 12:23:37;;;;;;;5.00;2.70;;;15.20;99.90;;;;;;5117513;28;20267;-81
2022/11/09 12:26:22;;;;;;;2.33;1.60;;;15.20;99.90;;;;;;5121242;28;20202;-80
2022/11/09 12:29:17;;;;;;;3.07;1.10;;;15.20;99.90;;;;;;5130077;28;20590;-82
2022/11/09 12:31:45;;;;;;;7.07;1.33;;;15.10;99.90;;;;;;5118564;28;20166;-82
2022/11/09 12:34:46;;;;;;;2.73;1.50;;;15.00;99.90;;;;;;5122553;28;20240;-80
2022/11/09 12:37:19;;;;;;;2.37;1.10;;;15.00;99.90;;;;;;5097726;28;20181;-82
2022/11/09 12:39:46;;;;;;;2.00;1.20;;;15.00;99.90;;;;;;5122022;28;20185;-81
2022/11/09 12:42:39;;;;;;;1.87;1.20;;;15.00;99.90;;;;;;5121796;28;20189;-79
2022/11/09 12:45:28;;;;;;;1.27;0.80;;;15.00;99.90;;;;;;5100753;28;20580;-80
2022/11/09 12:47:56;;;;;;;1.80;1.10;;;14.90;99.90;;;;;;5122572;28;20654;-80
2022/11/09 12:50:25;;;;;;;1.77;1.00;;;15.00;99.90;;;;;;5121547;28;20177;-80
2022/11/09 12:52:51;;;;;;;1.30;1.00;;;15.00;99.90;;;;;;5120241;28;20202;-80
2022/11/09 12:55:34;;;;;;;2.57;1.77;;;15.00;99.90;;;;;;5121318;28;20635;-79
2022/11/09 12:58:00;;;;;;;2.57;1.30;;;15.10;99.90;;;;;;5119262;28;20538;-79
2022/11/09 13:00:35;;;;;;;1.70;1.00;;;15.10;99.90;;;;;;5121335;28;20167;-79
2022/11/09 13:03:06;;;;;;;1.70;1.30;;;15.20;99.90;;;;;;5120821;28;20182;-81
2022/11/09 13:05:36;;;;;;;2.63;1.27;;;15.20;99.90;;;;;;5121525;28;20196;-80
2022/11/09 13:08:04;;;;;;;2.23;1.50;;;15.20;99.90;;;;;;5119310;28;20212;-81
2022/11/09 13:10:34;;;;;;;1.50;1.20;;;15.30;99.90;;;;;;5119378;28;20174;-80
2022/11/09 13:13:14;;;;;;;4.50;2.87;;;15.20;99.90;;;;;;5120026;28;20170;-80
2022/11/09 13:16:02;;;;;;;6.57;3.47;;;15.10;99.90;;;;;;5120009;28;20638;-80
2022/11/09 13:18:30;;;;;;;3.00;2.00;;;15.10;99.90;;;;;;5119425;28;20176;-80
2022/11/09 13:21:22;;;;;;;2.80;1.80;;;15.10;99.90;;;;;;5120187;28;20253;-79
2022/11/09 13:23:52;;;;;;;2.77;1.27;;;15.10;99.90;;;;;;5119062;28;20228;-78
2022/11/09 13:26:27;;;;;;;1.83;0.90;;;15.10;99.90;;;;;;5119106;28;20735;-78
2022/11/09 13:29:16;;;;;;;1.13;0.90;;;15.10;99.90;;;;;;5118931;28;20230;-79
2022/11/09 13:32:10;;;;;;;2.70;1.13;;;15.10;99.90;;;;;;5112713;28;20182;-80
2022/11/09 13:34:41;;;;;;;1.83;1.00;;;15.20;99.90;;;;;;5120868;28;20660;-80
2022/11/09 13:37:41;;;;;;;0.90;0.80;;;15.20;99.90;;;;;;5123726;28;20653;-79
2022/11/09 13:40:36;;;;;;;2.20;0.90;;;15.30;99.90;;;;;;5123506;28;20183;-80
2022/11/09 13:43:11;;;;;;;1.03;0.63;;;15.30;99.90;;;;;;5110337;28;20217;-80
2022/11/09 13:45:56;;;;;;;2.33;0.80;;;15.30;99.90;;;;;;5118879;28;20176;-81
2022/11/09 13:48:38;;;;;;;3.70;2.53;;;15.30;99.90;;;;;;5119196;28;20201;-80
2022/11/09 13:51:10;;;;;;;3.40;1.00;;;15.30;99.90;;;;;;5116746;28;20180;-79
2022/11/09 13:53:36;;;;;;;3.27;0.97;;;15.30;99.90;;;;;;5117864;28;20348;-79
2022/11/09 13:56:13;;;;;;;1.50;1.00;;;15.30;99.90;;;;;;5117860;28;20202;-80
2022/11/09 13:58:41;;;;;;;12.67;1.67;;;15.20;99.90;;;;;;5119150;28;20657;-79
2022/11/09 14:01:34;;;;;;;2.37;0.83;;;15.20;99.90;;;;;;5117567;28;20174;-79
2022/11/09 14:04:00;;;;;;;2.80;0.80;;;15.10;99.90;;;;;;5117151;28;20198;-79
2022/11/09 14:06:28;;;;;;;3.50;1.30;;;15.00;99.90;;;;;;5115603;28;20665;-80
2022/11/09 14:08:55;;;;;;;3.17;1.20;;;15.00;99.90;;;;;;5116722;28;20181;-79
2022/11/09 14:11:39;;;;;;;22.40;1.97;;;14.90;99.90;;;;;;5115224;28;20679;-79
2022/11/09 14:14:08;;;;;;;2.90;1.70;;;14.80;99.90;;;;;;5116660;28;20550;-79
2022/11/09 14:16:54;;;;;;;4.13;1.83;;;14.80;99.90;;;;;;5118250;28;20537;-80
2022/11/09 14:19:43;;;;;;;1.40;1.13;;;14.90;99.90;;;;;;5117405;28;20196;-81
2022/11/09 14:22:17;;;;;;;2.60;1.30;;;14.80;99.90;;;;;;5118137;28;20198;-81
2022/11/09 14:24:43;;;;;;;3.50;2.00;;;14.80;99.90;;;;;;5116974;28;20207;-81
2022/11/09 14:27:09;;;;;;;2.10;1.33;;;14.70;99.90;;;;;;5117256;28;20204;-81
2022/11/09 14:30:01;;;;;;;4.43;1.73;;;14.70;99.90;;;;;;5117488;28;20541;-80
2022/11/09 14:32:35;;;;;;;4.33;2.50;;;14.70;99.90;;;;;;5119865;28;20237;-79
2022/11/09 14:35:29;;;;;;;2.87;1.67;;;14.60;99.90;;;;;;5118657;28;20228;-79
2022/11/09 14:37:56;;;;;;;8.83;4.73;;;14.60;99.90;;;;;;5119564;28;20650;-79
2022/11/09 14:40:26;;;;;;;5.90;4.03;;;14.50;99.90;;;;;;5118091;28;20638;-79
2022/11/09 14:42:55;;;;;;;7.17;4.83;;;14.40;99.90;;;;;;5118696;27;20177;-79
2022/11/09 14:45:21;;;;;;;6.13;4.57;;;14.40;99.90;;;;;;5118952;28;20173;-80
2022/11/09 14:47:50;;;;;;;5.87;3.30;;;14.30;99.90;;;;;;5119053;28;20315;-80
2022/11/09 14:50:21;;;;;;;8.50;5.10;;;14.20;99.90;;;;;;5119309;28;20177;-79
2022/11/09 14:52:49;;;;;;;7.67;4.60;;;14.10;99.90;;;;;;5117320;28;20188;-80
2022/11/09 14:55:17;;;;;;;33.87;6.70;;;14.10;99.90;;;;;;5116639;28;20268;-79
2022/11/09 14:57:44;;;;;;;11.20;5.40;;;14.10;99.90;;;;;;5118883;28;20184;-79
2022/11/09 15:00:29;;;;;;;7.33;4.53;;;14.00;99.90;;;;;;5118406;28;20176;-79
2022/11/09 15:02:55;;;;;;;5.03;3.83;;;13.90;99.90;;;;;;5118565;28;20176;-79
2022/11/09 15:05:38;;;;;;;13.43;9.53;;;13.90;99.90;;;;;;5118262;28;20260;-80
2022/11/09 15:08:12;;;;;;;10.43;6.23;;;13.90;99.90;;;;;;5117972;28;20553;-80
2022/11/09 15:10:38;;;;;;;12.67;6.00;;;13.80;99.90;;;;;;5116604;28;20165;-79
2022/11/09 15:13:04;;;;;;;17.67;6.50;;;13.70;99.90;;;;;;5117756;28;20176;-79
2022/11/09 15:15:32;;;;;;;13.37;8.53;;;13.70;99.90;;;;;;5117086;28;20173;-79
2022/11/09 15:17:59;;;;;;;13.23;9.03;;;13.60;99.90;;;;;;5117754;28;20172;-80
2022/11/09 15:20:29;;;;;;;13.47;9.87;;;13.50;99.90;;;;;;5117905;28;20184;-79
2022/11/09 15:23:02;;;;;;;3.93;2.97;;;13.30;99.90;;;;;;5118089;28;20629;-80
2022/11/09 15:25:50;;;;;;;8.37;3.30;;;13.30;99.90;;;;;;5117462;28;20157;-78
2022/11/09 15:28:22;;;;;;;7.93;3.00;;;13.20;99.90;;;;;;5116682;28;20160;-79
2022/11/09 15:31:08;;;;;;;3.63;3.00;;;13.20;99.90;;;;;;5117683;28;20159;-80
2022/11/09 15:33:34;;;;;;;9.97;4.60;;;13.10;99.90;;;;;;5116660;28;20202;-80
2022/11/09 15:36:05;;;;;;;4.80;3.23;;;13.10;99.90;;;;;;5117111;28;20168;-79
2022/11/09 15:38:40;;;;;;;4.00;3.20;;;13.00;99.90;;;;;;5115890;28;20164;-82
2022/11/09 15:41:19;;;;;;;4.27;3.20;;;13.00;99.90;;;;;;5118003;28;20536;-79
2022/11/09 15:43:44;;;;;;;11.23;8.47;;;12.90;99.90;;;;;;5117141;28;20233;-79
2022/11/09 15:46:18;;;;;;;9.80;7.23;;;12.90;99.90;;;;;;5117443;28;20200;-80
2022/11/09 15:48:44;;;;;;;13.10;9.70;;;12.90;99.90;;;;;;5118132;28;20246;-79
2022/11/09 15:51:11;;;;;;;9.77;5.87;;;12.80;99.90;;;;;;5118104;28;20222;-79
2022/11/09 15:53:37;;;;;;;3.77;3.20;;;12.70;99.90;;;;;;5117934;28;20191;-79
2022/11/09 15:56:03;;;;;;;2.87;2.00;;;12.70;99.90;;;;;;5116110;28;20175;-78
2022/11/09 15:58:28;;;;;;;3.67;2.37;;;12.70;99.90;;;;;;5116087;28;20174;-78
2022/11/09 16:00:54;;;;;;;4.20;2.30;;;12.60;99.90;;;;;;5114921;28;20186;-79
2022/11/09 16:03:20;;;;;;;4.07;2.10;;;12.50;99.90;;;;;;5114274;28;20206;-78
2022/11/09 16:05:46;;;;;;;3.13;2.37;;;12.50;99.90;;;;;;5115691;28;20172;-79
2022/11/09 16:08:12;;;;;;;3.70;2.37;;;12.40;99.90;;;;;;5116481;28;20179;-79
2022/11/09 16:10:39;;;;;;;5.10;4.50;;;12.30;99.90;;;;;;5121274;28;20246;-79
2022/11/09 16:13:06;;;;;;;15.20;9.90;;;12.20;99.90;;;;;;5121222;28;20237;-80
2022/11/09 16:15:34;;;;;;;27.03;18.50;;;12.20;99.90;;;;;;5121392;28;20250;-79
2022/11/09 16:18:00;;;;;;;18.07;13.00;;;12.10;99.90;;;;;;5120845;28;20227;-79
2022/11/09 16:20:26;;;;;;;10.73;7.57;;;12.10;99.90;;;;;;5120874;28;20179;-78
2022/11/09 16:22:52;;;;;;;7.87;5.50;;;12.10;99.90;;;;;;5120913;28;20181;-79
2022/11/09 16:25:18;;;;;;;8.33;6.03;;;12.00;99.90;;;;;;5121324;28;20266;-78
2022/11/09 16:27:44;;;;;;;7.47;6.70;;;12.00;99.90;;;;;;5123167;28;20223;-79
2022/11/09 16:30:11;;;;;;;8.00;7.20;;;12.00;99.90;;;;;;5121589;28;20172;-77
2022/11/09 16:32:37;;;;;;;8.43;7.57;;;11.90;99.90;;;;;;5119633;28;20172;-79
2022/11/09 16:35:05;;;;;;;9.20;6.50;;;11.90;99.90;;;;;;5121455;28;20247;-79
2022/11/09 16:37:34;;;;;;;7.90;6.83;;;11.90;99.90;;;;;;5121116;28;20648;-79
2022/11/09 16:40:04;;;;;;;5.23;4.10;;;11.80;99.90;;;;;;5121273;28;20258;-78
2022/11/09 16:42:32;;;;;;;4.60;3.70;;;11.70;99.90;;;;;;5119502;28;20176;-78
2022/11/09 16:45:04;;;;;;;5.73;3.13;;;11.70;99.90;;;;;;5119305;28;20199;-79
2022/11/09 16:47:29;;;;;;;14.20;11.37;;;11.60;99.90;;;;;;5119647;28;20680;-79
2022/11/09 16:49:55;;;;;;;10.20;8.80;;;11.60;99.90;;;;;;5120302;28;20178;-79
2022/11/09 16:52:22;;;;;;;55.53;40.10;;;11.60;99.90;;;;;;5121719;28;20193;-79
2022/11/09 16:54:47;;;;;;;27.53;20.97;;;11.50;99.90;;;;;;5121046;28;20192;-80
2022/11/09 16:57:13;;;;;;;20.27;15.47;;;11.50;99.90;;;;;;5122402;28;20185;-79
2022/11/09 16:59:39;;;;;;;16.30;13.40;;;11.50;99.90;;;;;;5123843;28;20176;-78
2022/11/09 17:02:05;;;;;;;11.43;5.73;;;11.40;99.90;;;;;;5121861;28;20242;-80
2022/11/09 17:04:31;;;;;;;6.57;5.07;;;;;;;;;;5123790;28;20222;-79
2022/11/09 17:06:56;;;;;;;8.13;5.37;;;11.30;99.90;;;;;;5123971;28;20202;-80
2022/11/09 17:09:22;;;;;;;5.73;4.63;;;11.30;99.90;;;;;;5131639;28;20174;-80
2022/11/09 17:11:48;;;;;;;5.50;3.70;;;11.30;99.90;;;;;;5132570;28;20686;-79
2022/11/09 17:14:13;;;;;;;4.40;3.57;;;11.20;99.90;;;;;;5125574;28;20244;-79
2022/11/09 17:16:41;;;;;;;6.50;4.67;;;;;;;;;;5119223;28;20179;-79
2022/11/09 17:19:06;;;;;;;8.17;4.57;;;11.20;99.90;;;;;;5121081;28;20168;-79
2022/11/09 17:21:32;;;;;;;8.40;5.30;;;11.10;99.90;;;;;;5122642;28;20168;-79
2022/11/09 17:23:58;;;;;;;6.50;4.83;;;11.10;99.90;;;;;;5119759;28;20321;-79
2022/11/09 17:26:25;;;;;;;5.13;4.43;;;11.00;99.90;;;;;;5120356;28;20241;-80
2022/11/09 17:28:51;;;;;;;6.40;4.80;;;11.00;99.90;;;;;;5117639;28;20179;-79
2022/11/09 17:31:19;;;;;;;6.33;4.23;;;11.00;99.90;;;;;;5117570;28;20540;-80
2022/11/09 17:33:45;;;;;;;5.53;4.40;;;10.90;99.90;;;;;;5119447;28;20695;-79
2022/11/09 17:36:13;;;;;;;10.73;7.20;;;10.90;99.90;;;;;;5120799;28;20176;-79
2022/11/09 17:38:39;;;;;;;12.03;6.90;;;10.80;99.90;;;;;;5119832;28;20172;-79
2022/11/09 17:41:11;;;;;;;38.57;20.63;;;10.80;99.90;;;;;;5121359;28;20593;-80
2022/11/09 17:43:38;;;;;;;25.03;13.60;;;10.80;99.90;;;;;;5121543;28;20722;-79
2022/11/09 17:46:13;;;;;;;11.10;7.57;;;10.80;99.90;;;;;;5119579;28;20339;-81
2022/11/09 17:48:40;;;;;;;19.20;11.80;;;10.80;99.90;;;;;;5118289;28;20258;-80
2022/11/09 17:51:07;;;;;;;13.57;8.60;;;10.80;99.90;;;;;;5119514;28;20182;-80
2022/11/09 17:53:33;;;;;;;18.00;11.50;;;10.70;99.90;;;;;;5119692;28;20282;-80
2022/11/09 17:55:59;;;;;;;15.40;10.70;;;10.60;99.90;;;;;;5119971;28;20225;-80
2022/11/09 17:58:24;;;;;;;21.73;16.03;;;10.50;99.90;;;;;;5120219;28;20172;-80
2022/11/09 18:00:51;;;;;;;20.67;16.00;;;10.50;99.90;;;;;;5119490;28;20540;-80
2022/11/09 18:03:16;;;;;;;15.67;11.23;;;10.50;99.90;;;;;;5118272;28;20286;-79
2022/11/09 18:05:43;;;;;;;23.83;19.70;;;10.50;99.90;;;;;;5120323;28;20267;-80
2022/11/09 18:08:11;;;;;;;13.10;9.70;;;10.40;99.90;;;;;;5121859;28;20203;-80
2022/11/09 18:10:38;;;;;;;11.13;8.00;;;10.40;99.90;;;;;;5120939;28;20685;-79
2022/11/09 18:13:05;;;;;;;11.63;8.63;;;10.40;99.90;;;;;;5117475;28;20245;-80
2022/11/09 18:15:31;;;;;;;11.23;7.97;;;10.40;99.90;;;;;;5121124;28;20693;-80
2022/11/09 18:17:57;;;;;;;9.77;7.47;;;10.30;99.90;;;;;;5116270;28;20232;-78
2022/11/09 18:20:23;;;;;;;9.57;7.27;;;10.20;99.90;;;;;;5118751;28;20171;-78
2022/11/09 18:22:52;;;;;;;6.87;6.17;;;10.20;99.90;;;;;;5119820;28;20221;-80
2022/11/09 18:25:19;;;;;;;5.93;5.30;;;10.20;99.90;;;;;;5118181;28;20183;-79
2022/11/09 18:27:46;;;;;;;7.07;5.53;;;10.20;99.90;;;;;;5118381;28;20207;-79
2022/11/09 18:30:12;;;;;;;8.77;6.23;;;10.10;99.90;;;;;;5116194;28;20222;-79
2022/11/09 18:32:38;;;;;;;10.63;7.27;;;10.10;99.90;;;;;;5117074;28;20199;-79
2022/11/09 18:35:05;;;;;;;11.03;8.00;;;10.10;99.90;;;;;;5118613;28;20202;-79
2022/11/09 18:37:34;;;;;;;10.40;8.03;;;10.00;99.90;;;;;;5118054;28;20170;-78
2022/11/09 18:40:00;;;;;;;10.47;5.40;;;10.00;99.90;;;;;;5116675;28;20186;-79
2022/11/09 18:42:26;;;;;;;29.03;22.63;;;10.10;99.90;;;;;;5116464;28;20225;-78
2022/11/09 18:44:53;;;;;;;32.13;22.13;;;10.10;99.90;;;;;;5117467;28;20238;-79
2022/11/09 18:47:19;;;;;;;10.77;8.47;;;10.20;99.90;;;;;;5117686;28;20206;-79
2022/11/09 18:49:45;;;;;;;8.13;6.27;;;10.20;99.90;;;;;;5117894;28;20171;-77
2022/11/09 18:52:10;;;;;;;4.47;3.00;;;10.20;99.90;;;;;;5118904;28;20181;-78
2022/11/09 18:54:36;;;;;;;5.00;2.90;;;10.30;99.90;;;;;;5118055;28;20233;-79
2022/11/09 18:57:02;;;;;;;4.27;3.60;;;10.30;99.90;;;;;;5117400;28;20171;-80
2022/11/09 18:59:27;;;;;;;12.40;8.90;;;10.30;99.90;;;;;;5120957;28;20510;-80
2022/11/09 19:01:53;;;;;;;45.17;28.93;;;10.30;99.90;;;;;;5120808;28;20172;-79
2022/11/09 19:04:19;;;;;;;6.63;3.83;;;10.30;99.90;;;;;;5116663;28;20300;-79
2022/11/09 19:06:45;;;;;;;26.17;20.63;;;10.30;99.90;;;;;;5119117;28;20195;-79
2022/11/09 19:09:28;;;;;;;5.63;3.80;;;10.30;99.90;;;;;;5118891;28;20168;-79
2022/11/09 19:11:54;;;;;;;12.63;11.10;;;10.30;99.90;;;;;;5118122;28;20618;-79
2022/11/09 19:14:19;;;;;;;5.53;3.63;;;10.30;99.90;;;;;;5120173;28;20195;-79
2022/11/09 19:16:45;;;;;;;26.43;20.70;;;10.30;99.90;;;;;;5117777;28;20168;-80
2022/11/09 19:19:12;;;;;;;17.30;13.03;;;10.30;99.90;;;;;;5119017;28;20175;-78
2022/11/09 19:21:50;;;;;;;22.53;16.97;;;10.30;99.90;;;;;;5119133;28;20164;-79
2022/11/09 19:24:22;;;;;;;20.33;16.73;;;10.30;99.90;;;;;;5118367;28;20248;-78
2022/11/09 19:26:50;;;;;;;5.33;4.30;;;10.30;99.90;;;;;;5119725;28;20187;-78
2022/11/09 19:29:17;;;;;;;6.53;5.30;;;10.30;99.90;;;;;;5117512;28;20176;-79
2022/11/09 19:31:44;;;;;;;5.83;4.40;;;10.30;99.90;;;;;;5117605;28;20218;-78
2022/11/09 19:34:14;;;;;;;3.47;3.17;;;10.30;99.90;;;;;;5118817;28;20215;-80
2022/11/09 19:36:44;;;;;;;3.63;3.33;;;10.30;99.90;;;;;;5117732;28;20172;-79
2022/11/09 19:39:10;;;;;;;3.20;2.90;;;10.30;99.90;;;;;;5121622;28;20223;-79
2022/11/09 19:41:36;;;;;;;2.63;2.43;;;10.30;99.90;;;;;;5120554;28;20174;-79
2022/11/09 19:44:02;;;;;;;3.63;3.13;;;10.30;99.90;;;;;;5122209;28;20251;-79
